Authier, Canada
Current Conditions -  °F | °C
As of 5:00 AM on Sunday 25 Jan 2015 (Local Time) from CYUY Reporting Station
Broken Clouds Broken Clouds  
Wind Chill: -27°   Ceiling: 2000
Heat Index: -9°   Visibility: 15mi
Dew Point: -15°   Wind: 9mph
Humidity: 77%   Direction: 320°NW
Pressure: 29.75"   Gusts: 20mph
Location:  48.72°N, 78.87°W
Report Text: CYUY 251000Z 32008G17KT 15SM BKN020 M23/M26 A2975 RMK SC5 SLP105
Loading
Personal Weather Stations






























Interactive Weather Map New forecast layout! Learn more

10-Day Weather Forecast

Advertisements
Track Severe Weather on mobile